Time;durP1;ratioP1;P1;durP2;ratioP2;P2;SDS_P1;SDS_P2;PMS_P1;PMS_P2;Temp;Humidity;BMP_temperature;BMP_pressure;BME280_temperature;BME280_humidity;BME280_pressure;Samples;Min_cycle;Max_cycle;Signal;HPM_P1;HPM_P2
2021/12/16 00:06:45;;;;;;;18.80;14.52;;;;;;;4.50;100.00;98410.94;5030952;28;20407;-63
2021/12/16 00:09:01;;;;;;;17.58;14.60;;;;;;;4.54;100.00;98408.84;5095695;28;20401;-63
2021/12/16 00:33:41;;;;;;;17.05;13.55;;;;;;;4.46;100.00;98404.38;5074022;28;20385;-63
2021/12/16 00:35:48;;;;;;;18.52;14.60;;;;;;;4.60;100.00;98409.06;5089741;28;20417;-63
2021/12/16 00:38:14;;;;;;;18.17;13.80;;;;;;;4.46;100.00;98411.34;5095334;28;20405;-63
2021/12/16 00:40:42;;;;;;;16.65;13.68;;;;;;;4.69;100.00;98407.34;5094210;28;20396;-63
2021/12/16 00:43:15;;;;;;;17.67;14.50;;;;;;;4.59;100.00;98410.03;5095498;28;20405;-63
2021/12/16 00:45:58;;;;;;;17.95;13.90;;;;;;;4.53;100.00;98409.81;5095259;28;20454;-63
2021/12/16 00:48:36;;;;;;;17.13;14.00;;;;;;;4.48;100.00;98412.03;5095496;28;20389;-63
2021/12/16 00:56:14;;;;;;;15.38;13.07;;;;;;;4.41;100.00;98413.56;5095076;28;20915;-63
2021/12/16 00:58:48;;;;;;;16.33;13.50;;;;;;;4.24;100.00;98411.78;5094004;28;20494;-63
2021/12/16 01:01:33;;;;;;;17.38;13.68;;;;;;;4.41;100.00;98409.22;5094891;28;20899;-63
2021/12/16 01:50:50;;;;;;;21.15;16.45;;;;;;;4.48;100.00;98422.41;5094297;28;20415;-63
2021/12/16 01:53:24;;;;;;;21.42;16.70;;;;;;;4.41;100.00;98429.97;5093717;28;20390;-63
2021/12/16 01:56:02;;;;;;;21.33;16.10;;;;;;;4.38;100.00;98429.47;5094406;28;20417;-62
2021/12/16 01:58:30;;;;;;;20.20;15.63;;;;;;;4.46;100.00;98424.34;5094286;28;20866;-67
2021/12/16 02:01:15;;;;;;;19.73;16.35;;;;;;;4.28;100.00;98426.94;5093988;28;20411;-63
2021/12/16 02:03:50;;;;;;;22.30;15.18;;;;;;;4.38;100.00;98429.47;5092753;28;20473;-63
2021/12/16 02:10:02;;;;;;;19.87;15.13;;;;;;;4.41;100.00;98409.22;5093925;28;20410;-66
2021/12/16 02:12:48;;;;;;;19.98;15.05;;;;;;;4.58;100.00;98405.81;5091690;28;20390;-63
2021/12/16 02:29:15;;;;;;;22.52;17.15;;;;;;;4.32;100.00;98397.13;5093310;28;20381;-63
2021/12/16 02:34:56;;;;;;;20.05;16.25;;;;;;;4.18;100.00;98402.81;5093368;28;20396;-63
2021/12/16 02:37:20;;;;;;;21.67;16.17;;;;;;;4.33;100.00;98401.34;5093085;28;20409;-63
2021/12/16 02:39:47;;;;;;;21.50;15.85;;;;;;;4.52;100.00;98387.41;5093504;28;20770;-62
2021/12/16 02:42:19;;;;;;;20.55;15.40;;;;;;;4.38;100.00;98390.53;5093014;28;20435;-67
2021/12/16 02:50:18;;;;;;;22.30;15.88;;;;;;;4.42;100.00;98404.84;5071520;28;20435;-63
2021/12/16 02:52:44;;;;;;;22.17;15.97;;;;;;;4.40;100.00;98402.38;5092732;28;20386;-63
2021/12/16 02:55:13;;;;;;;20.33;15.80;;;;;;;4.44;100.00;98401.13;5093269;28;20373;-63
2021/12/16 02:57:47;;;;;;;22.15;16.45;;;;;;;4.30;100.00;98406.81;5092733;28;20496;-63
2021/12/16 03:00:15;;;;;;;20.42;15.40;;;;;;;4.44;100.00;98403.72;5093036;28;20377;-63
2021/12/16 03:02:43;;;;;;;18.00;14.83;;;;;;;4.46;100.00;98406.16;5092675;28;20398;-63
2021/12/16 03:05:10;;;;;;;20.07;15.63;;;;;;;4.49;100.00;98404.09;5092243;28;20459;-63
2021/12/16 03:07:35;;;;;;;21.20;15.48;;;;;;;4.59;100.00;98404.03;5092467;28;20447;-64
2021/12/16 03:18:08;;;;;;;19.53;15.27;;;;;;;4.53;100.00;98408.03;5092663;28;20841;-68
2021/12/16 03:20:45;;;;;;;20.02;16.00;;;;;;;4.64;100.00;98403.56;5092796;28;20406;-63
2021/12/16 03:38:48;;;;;;;19.47;14.93;;;;;;;4.39;100.00;98408.56;5092219;28;20402;-67
2021/12/16 03:41:14;;;;;;;19.37;16.07;;;;;;;4.46;100.00;98409.56;5091895;28;20389;-63
2021/12/16 03:43:39;;;;;;;20.40;15.50;;;;;;;4.36;100.00;98414.03;5092338;28;20373;-63
2021/12/16 03:48:56;;;;;;;20.98;16.38;;;;;;;4.70;100.00;98409.00;5091976;28;20397;-64
2021/12/16 03:51:24;;;;;;;20.93;16.17;;;;;;;4.77;100.00;98411.81;5092096;28;20378;-63
2021/12/16 03:53:53;;;;;;;19.80;15.68;;;;;;;4.39;100.00;98418.94;5091828;28;20704;-63
2021/12/16 03:56:20;;;;;;;19.92;15.60;;;;;;;4.51;100.00;98417.72;5091992;28;20731;-63
2021/12/16 03:58:46;;;;;;;19.57;15.30;;;;;;;4.77;100.00;98424.78;5092089;28;20394;-63
2021/12/16 04:01:18;;;;;;;20.57;15.97;;;;;;;4.74;100.00;98436.28;5092441;28;20856;-64
2021/12/16 04:03:44;;;;;;;20.58;16.27;;;;;;;4.83;100.00;98427.63;5091894;28;20427;-63
2021/12/16 04:06:10;;;;;;;21.27;16.48;;;;;;;4.76;100.00;98429.16;5091995;28;20466;-63
2021/12/16 04:08:36;;;;;;;22.13;16.80;;;;;;;4.76;100.00;98434.38;5092087;28;20874;-63
2021/12/16 04:11:10;;;;;;;23.70;16.90;;;;;;;4.73;100.00;98432.09;5091970;28;20427;-63
2021/12/16 04:13:52;;;;;;;24.00;16.60;;;;;;;4.62;100.00;98429.72;5091631;28;20543;-63
2021/12/16 04:16:18;;;;;;;21.93;16.67;;;;;;;4.61;100.00;98430.66;5092133;28;20386;-63
2021/12/16 04:18:43;;;;;;;25.23;17.15;;;;;;;4.57;100.00;98437.09;5090553;28;20451;-64
2021/12/16 04:21:10;;;;;;;21.50;15.90;;;;;;;4.42;100.00;98431.59;5090545;28;20453;-64
2021/12/16 04:23:35;;;;;;;21.85;16.48;;;;;;;4.40;100.00;98441.31;5091775;28;20389;-64
2021/12/16 04:26:01;;;;;;;22.40;16.40;;;;;;;4.51;100.00;98437.72;5092387;28;20408;-64
2021/12/16 04:28:30;;;;;;;23.53;17.00;;;;;;;4.81;100.00;98441.72;5092020;28;20386;-63
2021/12/16 04:30:56;;;;;;;20.98;15.75;;;;;;;4.70;100.00;98434.97;5091847;28;20410;-64
2021/12/16 04:33:22;;;;;;;21.60;15.43;;;;;;;4.57;100.00;98435.31;5091423;28;20431;-64
2021/12/16 04:35:47;;;;;;;22.55;15.77;;;;;;;4.56;100.00;98438.09;5091283;28;20409;-64
2021/12/16 04:38:14;;;;;;;20.63;15.27;;;;;;;4.64;100.00;98434.72;5091521;28;20530;-63
2021/12/16 04:40:43;;;;;;;20.17;14.60;;;;;;;4.65;100.00;98446.75;5091768;28;20401;-63
2021/12/16 04:43:09;;;;;;;21.23;14.85;;;;;;;4.72;100.00;98434.81;5091601;28;20385;-64
2021/12/16 04:45:35;;;;;;;22.90;14.37;;;;;;;4.68;100.00;98431.69;5091813;28;20382;-63
2021/12/16 04:48:02;;;;;;;20.73;14.68;;;;;;;4.45;100.00;98439.13;5091726;28;20374;-64
2021/12/16 04:50:28;;;;;;;20.85;14.75;;;;;;;4.49;100.00;98429.25;5091650;28;20414;-63
2021/12/16 04:52:54;;;;;;;21.67;14.90;;;;;;;4.35;100.00;98430.56;5094889;28;20511;-63
2021/12/16 04:55:20;;;;;;;19.80;14.68;;;;;;;4.10;100.00;98429.50;5095333;28;20427;-63
2021/12/16 04:57:48;;;;;;;20.33;14.93;;;;;;;4.07;100.00;98428.94;5095277;28;20425;-63
2021/12/16 05:00:17;;;;;;;20.60;14.63;;;;;;;4.23;100.00;98426.56;5095547;28;20393;-63
2021/12/16 05:02:44;;;;;;;20.85;14.68;;;;;;;4.03;100.00;98417.25;5094937;28;20389;-63
2021/12/16 05:05:10;;;;;;;19.75;14.45;;;;;;;3.90;100.00;98425.34;5095332;28;20377;-64
2021/12/16 05:07:36;;;;;;;21.88;14.45;;;;;;;4.14;100.00;98420.44;5095009;28;20393;-63
2021/12/16 05:10:10;;;;;;;21.02;14.82;;;;;;;4.04;100.00;98432.66;5093825;28;20394;-63
2021/12/16 05:12:41;;;;;;;17.65;13.15;;;;;;;3.87;100.00;98430.84;5094934;28;20382;-63
2021/12/16 05:15:12;;;;;;;19.08;14.02;;;;;;;4.10;100.00;98439.88;5094425;28;20420;-63
2021/12/16 05:17:42;;;;;;;18.80;13.70;;;;;;;4.37;100.00;98443.41;5094904;28;20401;-63
2021/12/16 05:20:12;;;;;;;19.10;13.48;;;;;;;4.19;100.00;98440.75;5094894;28;20734;-63
2021/12/16 05:28:07;;;;;;;18.95;13.48;;;;;;;4.36;100.00;98439.97;5094747;28;20377;-63
2021/12/16 05:30:34;;;;;;;19.07;13.40;;;;;;;4.28;100.00;98441.69;5094636;28;20371;-63
2021/12/16 05:32:59;;;;;;;18.38;12.60;;;;;;;4.30;100.00;98437.97;5094864;28;20455;-63
2021/12/16 05:35:26;;;;;;;19.73;13.53;;;;;;;4.35;100.00;98445.31;5094198;28;20732;-63
2021/12/16 05:37:52;;;;;;;19.30;13.48;;;;;;;4.15;100.00;98448.03;5094647;28;20409;-69
2021/12/16 05:40:24;;;;;;;19.13;13.63;;;;;;;4.32;100.00;98448.22;5094216;28;20746;-63
2021/12/16 05:42:56;;;;;;;19.40;13.75;;;;;;;4.11;100.00;98456.25;5094712;28;20366;-63
2021/12/16 05:45:23;;;;;;;19.80;13.13;;;;;;;4.05;100.00;98465.44;5094231;28;20439;-63
2021/12/16 05:47:50;;;;;;;19.85;13.25;;;;;;;4.20;100.00;98468.34;5094474;28;20386;-63
2021/12/16 05:50:17;;;;;;;19.52;13.73;;;;;;;4.27;100.00;98478.97;5093188;28;20412;-63
2021/12/16 05:52:43;;;;;;;17.52;12.98;;;;;;;4.28;100.00;98481.44;5094023;28;20380;-64
2021/12/16 05:55:10;;;;;;;20.00;13.30;;;;;;;4.08;100.00;98477.28;5094218;28;20824;-63
2021/12/16 05:57:36;;;;;;;17.10;12.30;;;;;;;4.01;100.00;98492.59;5094234;28;20776;-63
2021/12/16 06:00:04;;;;;;;18.15;12.40;;;;;;;4.36;100.00;98491.91;5094449;28;20374;-63
2021/12/16 06:02:30;;;;;;;18.20;12.95;;;;;;;4.31;100.00;98494.09;5094421;28;20865;-63
2021/12/16 06:04:55;;;;;;;19.45;12.80;;;;;;;4.27;100.00;98494.53;5093428;28;20378;-62
2021/12/16 06:07:21;;;;;;;17.50;13.23;;;;;;;4.21;100.00;98501.13;5094085;28;20489;-63
2021/12/16 06:09:47;;;;;;;18.75;13.00;;;;;;;4.19;100.00;98497.84;5093462;28;20871;-63
2021/12/16 06:12:14;;;;;;;21.02;13.98;;;;;;;4.23;100.00;98503.59;5093773;28;20790;-63
2021/12/16 06:15:21;;;;;;;17.50;12.70;;;;;;;4.37;100.00;98503.09;5093169;28;20804;-63
2021/12/16 06:28:33;;;;;;;17.65;12.73;;;;;;;4.36;100.00;98504.88;5093374;28;20378;-63
2021/12/16 06:30:59;;;;;;;18.13;13.48;;;;;;;4.39;100.00;98502.00;5093594;28;20673;-63
2021/12/16 06:33:24;;;;;;;17.20;12.43;;;;;;;4.28;100.00;98498.78;5093734;28;20385;-63
2021/12/16 06:35:52;;;;;;;19.07;13.63;;;;;;;4.65;100.00;98499.50;5093227;28;20414;-63
2021/12/16 06:38:20;;;;;;;17.75;13.27;;;;;;;4.53;100.00;98501.50;5093373;28;20437;-63
2021/12/16 06:40:45;;;;;;;18.73;13.23;;;;;;;4.51;100.00;98506.00;5093061;28;20424;-63
2021/12/16 06:43:13;;;;;;;18.77;13.20;;;;;;;4.51;100.00;98505.22;5093399;28;20410;-63
2021/12/16 06:45:41;;;;;;;18.20;13.15;;;;;;;4.42;100.00;98499.09;5093598;28;20374;-62
2021/12/16 06:48:12;;;;;;;19.02;13.15;;;;;;;4.42;100.00;98501.69;5092881;28;20454;-62
2021/12/16 06:50:54;;;;;;;18.92;13.23;;;;;;;4.48;100.00;98490.72;5093320;28;20376;-63
2021/12/16 06:53:28;;;;;;;18.33;13.48;;;;;;;4.48;100.00;98503.72;5091972;28;20793;-63
2021/12/16 06:58:35;;;;;;;20.23;13.27;;;;;;;4.71;100.00;98498.94;5092911;28;20409;-63
2021/12/16 07:01:16;;;;;;;18.83;12.45;;;;;;;4.47;100.00;98506.44;5093038;28;20382;-63
2021/12/16 07:03:47;;;;;;;18.38;13.43;;;;;;;4.65;100.00;98520.28;5093045;28;20468;-62
2021/12/16 07:06:29;;;;;;;20.02;13.65;;;;;;;4.56;100.00;98514.19;5092935;28;20394;-64
2021/12/16 07:09:09;;;;;;;17.98;12.95;;;;;;;4.46;100.00;98518.59;5092715;28;20461;-62
2021/12/16 07:11:40;;;;;;;19.02;13.13;;;;;;;4.47;100.00;98522.03;5092985;28;20374;-62
2021/12/16 07:14:11;;;;;;;20.27;12.88;;;;;;;4.57;100.00;98518.41;5091740;28;20378;-62
2021/12/16 07:16:37;;;;;;;18.08;12.60;;;;;;;4.83;100.00;98526.31;5092104;28;20366;-62
2021/12/16 07:19:02;;;;;;;19.50;12.80;;;;;;;4.68;100.00;98529.56;5092313;28;20425;-63
2021/12/16 07:21:28;;;;;;;19.97;13.23;;;;;;;4.60;100.00;98530.28;5092701;28;20397;-63
2021/12/16 07:23:54;;;;;;;19.63;13.15;;;;;;;4.83;100.00;98534.13;5092418;28;20406;-63
2021/12/16 07:26:19;;;;;;;19.10;12.93;;;;;;;4.81;100.00;98532.63;5091497;28;20389;-65
2021/12/16 07:28:45;;;;;;;20.77;13.60;;;;;;;4.66;100.00;98534.09;5092384;28;20413;-62
2021/12/16 07:31:10;;;;;;;20.63;13.27;;;;;;;4.77;100.00;98532.09;5092601;28;20455;-62
2021/12/16 07:33:35;;;;;;;19.70;13.57;;;;;;;4.82;100.00;98527.28;5092368;28;20428;-63
2021/12/16 07:36:02;;;;;;;18.97;12.17;;;;;;;4.95;100.00;98537.31;5092222;28;20468;-63
2021/12/16 07:38:29;;;;;;;18.75;12.95;;;;;;;4.73;100.00;98535.16;5092319;28;20402;-62
2021/12/16 07:40:57;;;;;;;18.67;12.25;;;;;;;4.69;100.00;98534.59;5091999;28;20464;-62
2021/12/16 07:46:09;;;;;;;16.75;12.18;;;;;;;4.67;100.00;98539.16;5092076;28;20462;-62
2021/12/16 07:48:34;;;;;;;18.10;12.40;;;;;;;4.93;100.00;98541.84;5092358;28;20444;-62
2021/12/16 07:51:02;;;;;;;19.13;12.82;;;;;;;4.77;100.00;98542.50;5092096;28;20461;-61
2021/12/16 07:53:28;;;;;;;18.60;12.52;;;;;;;4.88;100.00;98542.28;5092326;28;20850;-61
2021/12/16 07:55:54;;;;;;;17.50;11.98;;;;;;;4.86;100.00;98544.19;5092232;28;20414;-61
2021/12/16 07:58:20;;;;;;;17.70;11.85;;;;;;;4.99;100.00;98546.44;5093315;28;20918;-61
2021/12/16 08:00:47;;;;;;;18.17;12.07;;;;;;;4.94;100.00;98557.28;5090417;28;20390;-62
2021/12/16 08:03:14;;;;;;;18.05;12.48;;;;;;;5.07;100.00;98562.09;5091315;28;20385;-69
2021/12/16 08:05:46;;;;;;;18.08;12.20;;;;;;;4.99;100.00;98557.66;5082776;28;20408;-62
2021/12/16 08:08:13;;;;;;;17.67;12.10;;;;;;;4.79;100.00;98563.94;5089994;28;20390;-61
2021/12/16 08:10:38;;;;;;;18.63;12.30;;;;;;;4.80;100.00;98559.56;5090330;28;20875;-62
2021/12/16 08:13:06;;;;;;;25.40;15.13;;;;;;;5.20;100.00;98566.94;5090423;28;20390;-61
2021/12/16 08:15:31;;;;;;;20.27;13.02;;;;;;;5.21;100.00;98558.19;5090990;28;20489;-62
2021/12/16 08:17:58;;;;;;;19.70;12.80;;;;;;;5.19;100.00;98565.28;5090923;28;20504;-62
2021/12/16 08:20:23;;;;;;;19.90;12.65;;;;;;;5.28;100.00;98575.63;5091351;28;20441;-62
2021/12/16 08:22:51;;;;;;;18.30;12.93;;;;;;;5.18;100.00;98574.09;5090992;28;20382;-61
2021/12/16 08:25:20;;;;;;;18.45;12.77;;;;;;;5.26;100.00;98579.34;5090714;28;20501;-62
2021/12/16 08:27:46;;;;;;;18.02;12.20;;;;;;;5.15;99.85;98577.78;5094125;28;20397;-62
2021/12/16 08:30:15;;;;;;;18.63;12.15;;;;;;;4.98;100.00;98579.41;5095241;28;20386;-62
2021/12/16 08:32:40;;;;;;;20.70;12.40;;;;;;;5.13;100.00;98579.69;5094710;28;20863;-62
2021/12/16 08:35:08;;;;;;;17.83;11.83;;;;;;;5.25;100.00;98582.91;5094568;28;20877;-62
2021/12/16 08:37:33;;;;;;;18.98;12.35;;;;;;;5.28;100.00;98580.84;5094778;28;20410;-62
2021/12/16 08:40:02;;;;;;;17.07;11.87;;;;;;;5.50;99.02;98582.16;5093341;28;20749;-62
2021/12/16 08:42:28;;;;;;;17.03;11.53;;;;;;;5.43;98.56;98591.53;5094362;28;20497;-62
2021/12/16 08:44:53;;;;;;;14.80;11.13;;;;;;;5.53;97.49;98601.84;5094284;28;20393;-62
2021/12/16 08:47:19;;;;;;;16.23;11.40;;;;;;;5.50;97.96;98596.94;5092176;28;20409;-62
2021/12/16 08:49:45;;;;;;;16.88;11.60;;;;;;;5.62;97.18;98601.78;5094421;28;20398;-62
2021/12/16 08:52:15;;;;;;;16.10;11.43;;;;;;;5.39;99.09;98609.22;5094844;28;20392;-62
2021/12/16 08:54:41;;;;;;;17.27;12.60;;;;;;;5.72;97.25;98605.09;5094303;28;20878;-62
2021/12/16 08:57:07;;;;;;;18.33;12.27;;;;;;;5.45;99.72;98597.41;5093539;28;20397;-70
2021/12/16 08:59:34;;;;;;;18.17;12.63;;;;;;;5.67;98.65;98606.53;5094750;28;20410;-61
2021/12/16 09:02:01;;;;;;;17.17;12.30;;;;;;;5.54;99.52;98599.09;5092193;28;20496;-62
2021/12/16 09:04:27;;;;;;;19.13;12.80;;;;;;;5.60;99.19;98605.47;5094451;28;20447;-61
2021/12/16 09:06:56;;;;;;;19.43;13.60;;;;;;;5.68;98.36;98615.97;5093384;28;20468;-61
2021/12/16 09:09:22;;;;;;;18.17;12.75;;;;;;;5.75;98.13;98616.97;5093953;28;20402;-61
2021/12/16 09:12:52;;;;;;;19.88;13.65;;;;;;;5.86;96.70;98614.94;5094381;28;20747;-61
2021/12/16 09:14:44;;;;;;;18.87;12.93;;;;;;;5.65;98.38;98618.84;5084884;28;20394;-62
2021/12/16 09:17:14;;;;;;;18.73;13.10;;;;;;;5.74;98.37;98612.75;5094704;28;20409;-62
2021/12/16 09:19:43;;;;;;;21.17;13.57;;;;;;;6.01;96.99;98623.06;5093290;28;20402;-63
2021/12/16 09:22:10;;;;;;;20.00;13.25;;;;;;;5.95;96.96;98623.69;5093716;28;20465;-62
2021/12/16 09:24:37;;;;;;;19.75;13.50;;;;;;;5.97;97.18;98623.50;5092591;28;20455;-61
2021/12/16 09:27:03;;;;;;;17.98;12.40;;;;;;;5.81;97.89;98625.00;5092323;28;20390;-65
2021/12/16 09:29:28;;;;;;;18.85;13.02;;;;;;;5.89;96.90;98626.06;5092618;28;20442;-64
2021/12/16 09:31:54;;;;;;;19.35;13.55;;;;;;;5.59;99.52;98622.03;5094412;28;20394;-61
2021/12/16 09:34:19;;;;;;;21.13;13.10;;;;;;;5.77;98.79;98620.25;5093040;28;20907;-61
2021/12/16 09:36:45;;;;;;;19.37;12.97;;;;;;;6.21;96.65;98642.72;5094134;28;20430;-63
2021/12/16 09:39:15;;;;;;;19.33;13.00;;;;;;;6.08;96.03;98639.69;5091266;28;20466;-61
2021/12/16 09:41:46;;;;;;;19.60;13.57;;;;;;;6.07;95.64;98640.69;5093224;28;20874;-61
2021/12/16 09:44:12;;;;;;;18.63;12.40;;;;;;;6.16;95.46;98629.34;5093480;28;20451;-61
2021/12/16 09:46:39;;;;;;;18.38;13.02;;;;;;;6.48;93.99;98636.53;5092103;28;20386;-61
2021/12/16 09:49:05;;;;;;;19.65;12.55;;;;;;;6.30;94.41;98640.97;5093380;28;20446;-66
2021/12/16 09:51:33;;;;;;;18.97;12.80;;;;;;;6.42;93.77;98642.34;5093603;28;20480;-66
2021/12/16 09:54:05;;;;;;;18.97;13.10;;;;;;;6.53;93.20;98644.69;5093219;28;20470;-62
2021/12/16 09:56:32;;;;;;;17.48;12.20;;;;;;;6.61;93.00;98646.53;5093346;28;20523;-62
2021/12/16 09:59:00;;;;;;;19.33;12.75;;;;;;;6.64;92.79;98646.19;5093903;28;20462;-61
2021/12/16 10:01:26;;;;;;;17.92;12.38;;;;;;;6.54;92.91;98645.50;5093536;28;20543;-64
2021/12/16 10:03:56;;;;;;;18.17;12.30;;;;;;;6.65;91.49;98640.03;5090384;28;20901;-62
2021/12/16 10:06:21;;;;;;;19.23;12.75;;;;;;;6.41;92.94;98647.72;5093362;28;20870;-61
2021/12/16 10:08:47;;;;;;;18.15;12.82;;;;;;;6.43;92.87;98654.41;5093072;28;20398;-62
2021/12/16 10:11:15;;;;;;;19.77;12.88;;;;;;;6.33;93.27;98645.88;5093519;28;20846;-62
2021/12/16 10:13:58;;;;;;;20.48;13.25;;;;;;;6.17;94.50;98653.59;5092295;28;20400;-62
2021/12/16 10:19:11;;;;;;;21.25;13.50;;;;;;;6.12;94.79;98643.66;5093013;28;20844;-67
2021/12/16 10:21:37;;;;;;;19.08;13.10;;;;;;;6.10;95.98;98636.94;5093040;28;20428;-63
2021/12/16 10:24:03;;;;;;;19.00;13.00;;;;;;;6.32;94.90;98631.22;5093050;28;20378;-62
2021/12/16 10:26:28;;;;;;;19.83;12.95;;;;;;;6.04;96.26;98634.94;5092923;28;20473;-62
2021/12/16 10:28:57;;;;;;;20.00;13.83;;;;;;;6.49;93.54;98635.56;5092869;28;20409;-62
2021/12/16 10:31:35;;;;;;;19.95;13.25;;;;;;;6.65;92.54;98627.00;5093104;28;20394;-62
2021/12/16 10:34:10;;;;;;;19.73;12.85;;;;;;;6.55;92.30;98628.91;5092848;28;20394;-62
2021/12/16 10:36:39;;;;;;;18.30;12.93;;;;;;;6.46;92.75;98620.25;5092662;28;20913;-62
2021/12/16 10:39:14;;;;;;;19.92;12.88;;;;;;;6.54;93.56;98627.28;5093158;28;20428;-61
2021/12/16 10:41:48;;;;;;;18.77;12.77;;;;;;;6.69;91.83;98630.91;5092895;28;20382;-65
2021/12/16 10:44:19;;;;;;;20.30;13.00;;;;;;;6.55;92.59;98634.13;5092866;28;20452;-62
2021/12/16 10:46:54;;;;;;;19.67;13.07;;;;;;;6.74;91.44;98636.50;5077003;28;20438;-62
2021/12/16 10:49:25;;;;;;;16.77;11.82;;;;;;;6.47;92.58;98636.66;5092926;28;20402;-63
2021/12/16 10:51:54;;;;;;;19.05;12.60;;;;;;;6.36;93.76;98639.53;5092744;28;20386;-61
2021/12/16 10:54:25;;;;;;;17.80;12.45;;;;;;;6.66;91.66;98634.66;5092220;28;20476;-62
2021/12/16 10:56:56;;;;;;;17.92;11.40;;;;;;;6.60;91.96;98637.06;5090778;28;20390;-62
2021/12/16 10:59:21;;;;;;;17.42;11.82;;;;;;;6.66;92.23;98634.66;5092708;28;20562;-62
2021/12/16 11:02:12;;;;;;;14.70;10.87;;;;;;;6.36;93.03;98637.75;5092673;28;20824;-62
2021/12/16 11:04:51;;;;;;;16.15;11.15;;;;;;;6.53;92.53;98641.25;5092657;28;20400;-62
2021/12/16 11:07:19;;;;;;;14.77;10.70;;;;;;;6.63;91.62;98640.16;5100510;28;20417;-62
2021/12/16 11:09:44;;;;;;;17.38;11.77;;;;;;;6.77;91.99;98640.56;5092469;28;20402;-62
2021/12/16 11:12:18;;;;;;;15.77;11.07;;;;;;;6.54;92.80;98638.50;5092383;28;20858;-62
2021/12/16 11:14:48;;;;;;;14.63;10.65;;;;;;;6.53;92.90;98636.88;5091645;28;20381;-63
2021/12/16 11:17:17;;;;;;;16.33;11.60;;;;;;;6.89;90.46;98642.75;5090369;28;20505;-62
2021/12/16 11:19:51;;;;;;;17.30;11.30;;;;;;;6.88;90.15;98641.09;5090604;28;20410;-63
2021/12/16 11:22:21;;;;;;;16.35;11.32;;;;;;;6.71;91.80;98636.81;5092048;28;20394;-62
2021/12/16 11:24:47;;;;;;;16.67;11.68;;;;;;;6.87;90.76;98634.25;5091792;28;20382;-62
2021/12/16 11:27:26;;;;;;;15.75;10.98;;;;;;;6.77;91.36;98638.78;5092061;28;20390;-62
2021/12/16 11:29:53;;;;;;;15.38;11.27;;;;;;;6.98;90.29;98641.78;5091542;28;20394;-62
2021/12/16 11:32:37;;;;;;;16.42;11.43;;;;;;;6.68;91.49;98637.13;5091504;28;20886;-61
2021/12/16 11:35:47;;;;;;;15.02;11.20;;;;;;;6.51;92.77;98635.41;5091752;28;20394;-62
2021/12/16 11:38:15;;;;;;;14.77;10.60;;;;;;;6.85;91.29;98645.81;5078296;28;20418;-62
2021/12/16 11:41:10;;;;;;;13.90;10.65;;;;;;;7.06;89.62;98644.44;5091144;28;20398;-62
2021/12/16 11:43:35;;;;;;;16.08;10.48;;;;;;;6.88;90.42;98641.09;5080909;28;20874;-62
2021/12/16 11:46:03;;;;;;;14.77;10.90;;;;;;;6.93;90.34;98640.63;5090481;28;20393;-61
2021/12/16 11:48:35;;;;;;;13.90;10.57;;;;;;;6.80;90.52;98638.47;5091124;28;20462;-62
2021/12/16 11:51:05;;;;;;;14.68;10.82;;;;;;;7.03;89.68;98628.28;5091488;28;20504;-62
2021/12/16 11:53:59;;;;;;;18.50;11.25;;;;;;;7.24;88.28;98633.91;5091075;28;20394;-64
2021/12/16 11:56:44;;;;;;;14.68;10.98;;;;;;;7.05;89.85;98634.97;5089681;28;20466;-62
2021/12/16 11:59:11;;;;;;;14.43;11.10;;;;;;;6.81;90.64;98637.50;5091674;28;20417;-62
2021/12/16 12:01:40;;;;;;;15.02;10.90;;;;;;;6.89;90.48;98641.94;5090731;28;20712;-62
2021/12/16 12:04:08;;;;;;;16.85;10.95;;;;;;;7.20;88.94;98626.53;5090602;28;20390;-61
2021/12/16 12:06:36;;;;;;;15.98;10.73;;;;;;;7.19;88.67;98627.53;5091398;28;20888;-61
2021/12/16 12:09:05;;;;;;;15.15;11.00;;;;;;;6.98;89.94;98635.75;5091092;28;20440;-61
2021/12/16 12:11:34;;;;;;;14.68;10.88;;;;;;;7.16;89.73;98628.66;5090985;28;20754;-62
2021/12/16 12:14:05;;;;;;;15.40;11.45;;;;;;;7.60;86.83;98623.97;5090898;28;20496;-61
2021/12/16 12:16:37;;;;;;;17.05;11.30;;;;;;;7.54;87.60;98619.41;5091183;28;20390;-61
2021/12/16 12:19:11;;;;;;;15.90;11.03;;;;;;;7.06;90.32;98618.38;5090912;28;20525;-61
2021/12/16 12:21:37;;;;;;;14.93;11.30;;;;;;;7.26;89.25;98616.28;5091028;28;21115;-61
2021/12/16 12:24:14;;;;;;;15.73;10.77;;;;;;;7.34;89.07;98618.09;5091243;28;20382;-62
2021/12/16 12:26:53;;;;;;;15.95;11.30;;;;;;;7.43;87.87;98615.31;5091609;28;20415;-65
2021/12/16 12:29:31;;;;;;;14.45;10.85;;;;;;;7.59;86.85;98611.09;5090036;28;20813;-61
2021/12/16 12:32:22;;;;;;;15.68;11.13;;;;;;;7.57;87.21;98607.84;5090919;28;20394;-62
2021/12/16 12:35:00;;;;;;;14.02;10.60;;;;;;;7.34;88.58;98603.25;5090311;28;20886;-61
2021/12/16 12:37:28;;;;;;;16.00;11.63;;;;;;;7.45;87.92;98602.13;5091302;28;20414;-61
2021/12/16 12:40:07;;;;;;;14.77;11.27;;;;;;;7.28;89.01;98600.47;5090285;28;20408;-61
2021/12/16 12:42:33;;;;;;;14.48;11.05;;;;;;;7.39;88.82;98597.56;5091601;28;20495;-61
2021/12/16 12:44:59;;;;;;;15.63;11.15;;;;;;;7.43;88.91;98591.84;5089231;28;20501;-62
2021/12/16 12:47:31;;;;;;;15.57;11.15;;;;;;;7.67;87.72;98592.84;5088731;28;20510;-64
2021/12/16 12:50:13;;;;;;;16.27;11.25;;;;;;;7.71;86.62;98589.72;5084020;28;20401;-63
2021/12/16 12:52:39;;;;;;;15.85;10.85;;;;;;;7.58;87.47;98584.19;5091148;28;20390;-61
2021/12/16 12:55:08;;;;;;;13.57;10.32;;;;;;;7.55;87.38;98587.13;5089813;28;20450;-62
2021/12/16 12:57:36;;;;;;;14.20;10.77;;;;;;;7.40;88.05;98589.56;5090716;28;20390;-62
2021/12/16 13:00:09;;;;;;;16.10;11.13;;;;;;;7.32;88.94;98592.16;5090506;28;20402;-63
2021/12/16 13:02:37;;;;;;;14.63;10.40;;;;;;;7.67;86.74;98587.63;5090734;28;20917;-62
2021/12/16 13:05:08;;;;;;;14.40;10.50;;;;;;;7.70;86.54;98592.50;5090494;28;20393;-62
2021/12/16 13:07:40;;;;;;;14.95;10.55;;;;;;;7.65;87.15;98602.63;5090089;28;20386;-65
2021/12/16 13:10:19;;;;;;;14.83;11.00;;;;;;;7.53;86.61;98600.31;5090391;28;20392;-65
2021/12/16 13:12:59;;;;;;;16.15;11.07;;;;;;;7.50;86.60;98594.63;5088184;28;20502;-62
2021/12/16 13:16:11;;;;;;;13.93;10.77;;;;;;;7.41;87.76;98601.63;5091167;28;20750;-63
2021/12/16 13:24:08;;;;;;;12.73;9.95;;;;;;;7.43;86.64;98604.06;5094050;28;20443;-61
2021/12/16 13:26:42;;;;;;;13.52;10.23;;;;;;;7.29;88.37;98595.09;5095479;28;20398;-64
2021/12/16 13:32:14;;;;;;;14.40;11.07;;;;;;;7.33;87.52;98590.38;5093256;28;20402;-61
2021/12/16 13:34:58;;;;;;;13.45;10.85;;;;;;;7.04;89.28;98594.22;5091858;28;20448;-62
2021/12/16 13:37:31;;;;;;;15.45;10.80;;;;;;;7.09;88.24;98585.94;5090116;28;20489;-63
2021/12/16 13:40:14;;;;;;;16.35;10.77;;;;;;;7.07;88.88;98588.72;5093813;28;20410;-65
2021/12/16 13:42:54;;;;;;;16.25;10.80;;;;;;;7.03;89.35;98597.81;5092781;28;20405;-62
2021/12/16 13:45:32;;;;;;;12.97;10.03;;;;;;;7.20;88.97;98600.44;5078724;28;20479;-63
2021/12/16 14:02:52;;;;;;;14.98;10.85;;;;;;;6.92;91.16;98616.34;5093669;28;20392;-62
2021/12/16 14:05:45;;;;;;;15.68;9.98;;;;;;;7.17;90.33;98619.84;5091649;28;20451;-61
2021/12/16 14:08:25;;;;;;;14.77;11.05;;;;;;;7.57;88.02;98628.72;5093570;28;20862;-61
2021/12/16 14:39:13;;;;;;;14.73;10.87;;;;;;;6.67;90.97;98649.34;5092411;28;20724;-61
2021/12/16 14:46:47;;;;;;;14.60;10.52;;;;;;;6.55;91.17;98644.53;5092306;28;20398;-65
2021/12/16 14:49:13;;;;;;;16.05;10.88;;;;;;;6.53;91.28;98647.28;5092782;28;20390;-64
2021/12/16 14:51:39;;;;;;;14.88;10.38;;;;;;;6.43;91.20;98650.97;5085135;28;20897;-64
2021/12/16 14:54:07;;;;;;;14.27;9.82;;;;;;;6.38;92.72;98643.63;5092454;28;20397;-61
2021/12/16 14:56:37;;;;;;;13.40;9.95;;;;;;;6.33;93.24;98637.25;5092423;28;20408;-62
2021/12/16 14:59:07;;;;;;;13.77;9.90;;;;;;;6.51;92.30;98641.44;5092429;28;20417;-62
2021/12/16 15:01:37;;;;;;;15.63;10.55;;;;;;;6.48;91.85;98644.34;5092222;28;20405;-62
2021/12/16 15:04:05;;;;;;;13.32;10.00;;;;;;;6.46;92.52;98635.06;5092612;28;20386;-61
2021/12/16 15:06:51;;;;;;;15.25;10.07;;;;;;;6.41;92.22;98650.34;5090739;28;20402;-61
2021/12/16 15:09:29;;;;;;;15.80;10.70;;;;;;;6.21;93.52;98650.53;5092172;28;20437;-63